Time;durP1;ratioP1;P1;durP2;ratioP2;P2;SDS_P1;SDS_P2;PMS_P1;PMS_P2;Temp;Humidity;BMP_temperature;BMP_pressure;BME280_temperature;BME280_humidity;BME280_pressure;Samples;Min_cycle;Max_cycle;Signal;HPM_P1;HPM_P2
2021/07/10 00:02:22;;;;;;;10.95;7.05;;;24.90;60.70;;;;;;5009530;28;19940;-93
2021/07/10 00:04:49;;;;;;;13.95;6.90;;;24.80;61.70;;;;;;5007426;28;20042;-92
2021/07/10 00:07:15;;;;;;;14.95;6.88;;;24.80;61.80;;;;;;5009340;28;20082;-91
2021/07/10 00:09:41;;;;;;;14.93;7.05;;;24.80;61.80;;;;;;5011322;28;20030;-93
2021/07/10 00:12:07;;;;;;;20.20;7.32;;;24.80;61.90;;;;;;5012626;28;20026;-92
2021/07/10 00:14:33;;;;;;;13.38;7.38;;;24.80;62.00;;;;;;5045518;28;20045;-84
2021/07/10 00:17:00;;;;;;;9.02;6.57;;;24.80;62.00;;;;;;5045051;28;20025;-91
2021/07/10 00:19:26;;;;;;;12.95;7.32;;;24.80;62.10;;;;;;5039533;28;20151;-91
2021/07/10 00:21:52;;;;;;;10.57;6.28;;;24.80;62.10;;;;;;5039061;28;20217;-91
2021/07/10 00:24:18;;;;;;;15.48;7.38;;;24.80;61.90;;;;;;5037386;28;20387;-90
2021/07/10 00:26:44;;;;;;;12.02;6.97;;;24.80;62.10;;;;;;5051107;28;20033;-90
2021/07/10 00:29:11;;;;;;;16.10;7.53;;;24.70;62.10;;;;;;5039937;28;20437;-89
2021/07/10 00:31:37;;;;;;;15.25;7.25;;;24.70;62.30;;;;;;5027768;28;20030;-90
2021/07/10 00:34:03;;;;;;;11.88;6.30;;;24.70;62.50;;;;;;4999727;28;20832;-90
2021/07/10 00:36:29;;;;;;;12.05;6.90;;;24.60;62.50;;;;;;5028416;28;20032;-90
2021/07/10 00:38:56;;;;;;;12.45;7.13;;;24.60;62.50;;;;;;5044442;28;20052;-90
2021/07/10 00:41:22;;;;;;;;;;;24.50;62.70;;;;;;5045853;28;20021;-92
2021/07/10 00:43:49;;;;;;;13.52;7.47;;;24.50;62.00;;;;;;5043174;28;19909;-91
2021/07/10 00:46:18;;;;;;;11.85;7.25;;;24.50;62.80;;;;;;5047159;28;20088;-92
2021/07/10 00:48:46;;;;;;;10.52;7.30;;;24.50;63.10;;;;;;5070086;28;20041;-90
2021/07/10 00:51:12;;;;;;;10.93;6.75;;;24.50;63.10;;;;;;5068911;28;20029;-90
2021/07/10 00:53:38;;;;;;;11.52;7.05;;;24.40;63.10;;;;;;5050044;28;20017;-93
2021/07/10 00:56:05;;;;;;;12.57;7.10;;;24.40;63.30;;;;;;5053709;28;20035;-92
2021/07/10 00:58:32;;;;;;;12.15;7.25;;;24.40;63.30;;;;;;5059609;28;20028;-93
2021/07/10 01:00:58;;;;;;;;;;;24.30;63.40;;;;;;5047431;28;20038;-92
2021/07/10 01:03:25;;;;;;;11.68;7.07;;;24.30;62.70;;;;;;5049325;28;19964;-92
2021/07/10 01:05:51;;;;;;;12.48;7.78;;;24.30;63.60;;;;;;5048554;28;20053;-90
2021/07/10 01:08:17;;;;;;;10.85;7.10;;;24.30;63.70;;;;;;5037278;28;20025;-91
2021/07/10 01:10:43;;;;;;;16.13;7.47;;;24.30;63.50;;;;;;5043167;28;20130;-92
2021/07/10 01:13:11;;;;;;;11.48;6.88;;;24.30;63.40;;;;;;5038676;28;20029;-92
2021/07/10 01:15:37;;;;;;;18.02;7.55;;;24.30;63.40;;;;;;5041390;28;20490;-93
2021/07/10 01:18:03;;;;;;;13.05;6.80;;;24.40;63.40;;;;;;5043284;28;20036;-92
2021/07/10 01:20:30;;;;;;;15.52;7.45;;;24.40;63.20;;;;;;5063570;28;20025;-91
2021/07/10 01:22:57;;;;;;;10.77;6.13;;;24.50;63.10;;;;;;5043501;28;20021;-92
2021/07/10 01:25:25;;;;;;;11.40;6.90;;;24.50;62.80;;;;;;5044805;28;20037;-92
2021/07/10 01:27:52;;;;;;;10.10;6.85;;;24.50;62.80;;;;;;5041093;28;20060;-92
2021/07/10 01:30:20;;;;;;;18.70;7.10;;;24.50;62.80;;;;;;5044813;28;20036;-90
2021/07/10 01:32:48;;;;;;;11.77;6.72;;;24.50;63.00;;;;;;5055452;28;20014;-78
2021/07/10 01:35:14;;;;;;;11.52;6.53;;;24.50;63.10;;;;;;5072429;28;20036;-89
2021/07/10 01:37:44;;;;;;;13.73;6.93;;;24.50;63.10;;;;;;5077654;28;20013;-91
2021/07/10 01:40:17;;;;;;;15.50;7.00;;;24.50;63.30;;;;;;5071392;28;20027;-93
2021/07/10 01:42:43;;;;;;;11.52;7.03;;;24.40;63.40;;;;;;5051292;28;20036;-92
2021/07/10 01:45:11;;;;;;;13.05;6.88;;;24.40;63.60;;;;;;5049237;28;20038;-90
2021/07/10 01:47:37;;;;;;;13.30;6.95;;;24.40;64.00;;;;;;5056059;28;20017;-91
2021/07/10 01:50:07;;;;;;;19.23;7.82;;;24.40;63.90;;;;;;5053009;28;20057;-91
2021/07/10 01:52:34;;;;;;;15.35;7.30;;;24.40;64.00;;;;;;5066379;28;20036;-90
2021/07/10 01:55:04;;;;;;;11.25;6.97;;;24.40;64.10;;;;;;5052358;28;20022;-91
2021/07/10 01:57:30;;;;;;;11.23;6.63;;;24.40;64.10;;;;;;5055509;28;20006;-90
2021/07/10 01:59:55;;;;;;;13.65;6.90;;;24.40;64.00;;;;;;5056655;28;20032;-90
2021/07/10 02:02:21;;;;;;;9.02;6.07;;;24.40;63.90;;;;;;5037964;28;20017;-91
2021/07/10 02:04:49;;;;;;;10.73;6.82;;;24.50;63.80;;;;;;5042243;28;20487;-91
2021/07/10 02:07:16;;;;;;;17.95;6.35;;;24.60;63.60;;;;;;5038896;28;20018;-90
2021/07/10 02:09:43;;;;;;;10.85;7.28;;;24.60;63.40;;;;;;5027753;28;20077;-90
2021/07/10 02:12:10;;;;;;;9.55;6.97;;;24.60;63.20;;;;;;5034651;28;20072;-91
2021/07/10 02:14:36;;;;;;;10.15;6.63;;;24.60;63.20;;;;;;5020074;28;20434;-93
2021/07/10 02:17:02;;;;;;;13.35;7.40;;;24.60;63.20;;;;;;5037806;28;20483;-91
2021/07/10 02:19:28;;;;;;;10.60;7.63;;;24.60;63.30;;;;;;5038757;28;20044;-91
2021/07/10 02:21:54;;;;;;;14.75;6.82;;;24.60;63.40;;;;;;5046009;28;20097;-90
2021/07/10 02:24:20;;;;;;;16.48;7.28;;;24.60;63.50;;;;;;5057815;28;20024;-89
2021/07/10 02:26:46;;;;;;;10.23;7.30;;;24.60;63.80;;;;;;5066300;28;20028;-83
2021/07/10 02:29:12;;;;;;;14.70;7.40;;;24.50;63.80;;;;;;5050178;28;20052;-90
2021/07/10 02:31:38;;;;;;;14.45;6.80;;;24.50;64.00;;;;;;5029690;28;20036;-92
2021/07/10 02:34:04;;;;;;;13.93;7.53;;;24.60;64.00;;;;;;5042022;28;20049;-89
2021/07/10 02:36:32;;;;;;;12.38;8.27;;;24.50;63.80;;;;;;5055020;28;20038;-91
2021/07/10 02:38:58;;;;;;;8.27;7.38;;;24.60;63.80;;;;;;5021747;28;20001;-89
2021/07/10 02:41:25;;;;;;;10.23;7.30;;;24.70;63.40;;;;;;5054468;28;20029;-91
2021/07/10 02:43:51;;;;;;;11.37;6.50;;;24.80;63.30;;;;;;5040494;28;20033;-90
2021/07/10 02:46:17;;;;;;;12.13;6.53;;;24.90;63.10;;;;;;5055795;28;20037;-89
2021/07/10 02:48:46;;;;;;;10.15;6.95;;;25.10;62.00;;;;;;5047371;28;20052;-90
2021/07/10 02:51:12;;;;;;;10.98;7.00;;;25.30;61.90;;;;;;5048037;28;20021;-93
2021/07/10 02:53:38;;;;;;;9.10;6.75;;;25.40;61.40;;;;;;5045266;28;20021;-93
2021/07/10 02:56:04;;;;;;;13.52;6.75;;;25.60;61.10;;;;;;5048642;28;20029;-93
2021/07/10 02:58:30;;;;;;;15.57;7.18;;;25.80;60.60;;;;;;5068862;28;20105;-91
2021/07/10 03:00:56;;;;;;;11.73;6.78;;;26.00;60.40;;;;;;5059999;28;20010;-90
2021/07/10 03:03:22;;;;;;;10.40;7.90;;;26.10;59.80;;;;;;5059038;28;20025;-92
2021/07/10 03:05:48;;;;;;;10.52;6.75;;;26.30;59.00;;;;;;5057565;28;20094;-92
2021/07/10 03:08:14;;;;;;;10.40;6.78;;;26.30;58.70;;;;;;5045600;28;20013;-91
2021/07/10 03:10:42;;;;;;;12.60;6.75;;;26.20;58.80;;;;;;5041593;28;20025;-89
2021/07/10 03:13:08;;;;;;;8.68;6.68;;;26.20;59.70;;;;;;5037154;28;20052;-89
2021/07/10 03:15:34;;;;;;;12.27;7.17;;;26.20;59.00;;;;;;5017637;28;20025;-91
2021/07/10 03:18:02;;;;;;;11.20;6.47;;;26.20;59.70;;;;;;5032550;28;20029;-93
2021/07/10 03:20:30;;;;;;;7.35;6.13;;;26.10;59.60;;;;;;4973476;28;20099;-93
2021/07/10 03:22:56;;;;;;;13.10;6.63;;;26.10;59.00;;;;;;4962754;28;20036;-92
2021/07/10 03:25:22;;;;;;;9.65;6.97;;;26.00;58.80;;;;;;4948030;28;20053;-93
2021/07/10 03:27:49;;;;;;;9.87;6.63;;;26.00;59.10;;;;;;4964952;28;20069;-92
2021/07/10 03:30:19;;;;;;;8.73;6.03;;;25.90;59.20;;;;;;4982694;28;20035;-93
2021/07/10 03:32:45;;;;;;;7.88;6.32;;;25.90;58.80;;;;;;4981730;28;20126;-93
2021/07/10 03:35:13;;;;;;;10.88;6.40;;;26.00;58.60;;;;;;4970002;28;20040;-91
2021/07/10 03:37:39;;;;;;;11.60;6.53;;;26.00;58.70;;;;;;4966792;28;20035;-91
2021/07/10 03:40:11;;;;;;;16.90;6.85;;;26.10;58.40;;;;;;4967184;28;20036;-92
2021/07/10 03:42:38;;;;;;;12.23;6.32;;;26.10;58.80;;;;;;4953887;28;20026;-91
2021/07/10 03:45:06;;;;;;;9.40;6.25;;;26.20;58.90;;;;;;4970320;29;20035;-91
2021/07/10 03:47:32;;;;;;;10.23;7.00;;;26.40;58.60;;;;;;4962256;29;20433;-91
2021/07/10 03:49:58;;;;;;;7.47;5.85;;;26.50;58.30;;;;;;4966845;29;20051;-92
2021/07/10 03:52:24;;;;;;;11.25;6.07;;;26.70;57.20;;;;;;5019956;28;20060;-91
2021/07/10 03:54:50;;;;;;;9.85;6.10;;;26.90;56.90;;;;;;5022803;28;20081;-91
2021/07/10 03:57:15;;;;;;;10.32;6.43;;;27.00;56.30;;;;;;5014778;28;20026;-93
2021/07/10 03:59:41;;;;;;;12.57;7.32;;;27.10;56.10;;;;;;5020232;28;20049;-92
2021/07/10 04:02:07;;;;;;;13.25;7.13;;;27.10;56.00;;;;;;5021233;28;20026;-91
2021/07/10 04:04:34;;;;;;;10.98;6.75;;;27.20;55.80;;;;;;5025020;28;20032;-90
2021/07/10 04:07:00;;;;;;;12.53;7.47;;;27.20;55.70;;;;;;5023486;28;20030;-92
2021/07/10 04:09:25;;;;;;;9.40;7.93;;;27.30;55.70;;;;;;5026676;28;20026;-93
2021/07/10 04:11:52;;;;;;;8.60;6.47;;;27.40;55.30;;;;;;5033167;28;20029;-90
2021/07/10 04:14:18;;;;;;;10.00;6.50;;;27.50;55.10;;;;;;5040030;28;20056;-90
2021/07/10 04:16:44;;;;;;;11.23;7.13;;;27.50;54.80;;;;;;5013736;28;20029;-91
2021/07/10 04:19:10;;;;;;;11.95;6.80;;;27.50;54.70;;;;;;5026360;28;20275;-91
2021/07/10 04:21:36;;;;;;;11.30;6.72;;;27.50;54.90;;;;;;5015816;28;20030;-91
2021/07/10 04:24:02;;;;;;;11.43;7.10;;;27.50;55.10;;;;;;5022389;28;20089;-92
2021/07/10 04:26:28;;;;;;;9.18;6.55;;;27.60;55.40;;;;;;5034681;28;20097;-90
2021/07/10 04:28:54;;;;;;;9.55;6.28;;;27.80;55.20;;;;;;5035906;28;20089;-90
2021/07/10 04:31:20;;;;;;;10.65;7.10;;;27.80;54.50;;;;;;5027728;28;20028;-91
2021/07/10 04:33:46;;;;;;;9.50;6.53;;;28.00;54.20;;;;;;5023676;28;20022;-91
2021/07/10 04:36:12;;;;;;;8.32;7.05;;;28.20;53.60;;;;;;5029213;28;20029;-90
2021/07/10 04:38:39;;;;;;;8.98;6.90;;;28.30;53.10;;;;;;5027063;28;20156;-92
2021/07/10 04:41:08;;;;;;;10.75;7.63;;;28.40;52.70;;;;;;5019826;28;20022;-91
2021/07/10 04:43:35;;;;;;;11.60;5.53;;;28.40;53.00;;;;;;5020424;28;20037;-90
2021/07/10 04:46:01;;;;;;;7.43;6.30;;;28.30;54.00;;;;;;5019205;28;20395;-91
2021/07/10 04:48:27;;;;;;;11.20;7.13;;;28.20;54.10;;;;;;5025093;28;20018;-89
2021/07/10 04:50:53;;;;;;;8.87;6.93;;;28.20;54.10;;;;;;5023341;28;20026;-90
2021/07/10 04:53:19;;;;;;;14.27;7.57;;;28.30;54.00;;;;;;5032715;28;20243;-92
2021/07/10 04:55:47;;;;;;;9.10;6.60;;;28.30;54.40;;;;;;5031233;28;20030;-82
2021/07/10 04:58:14;;;;;;;12.35;7.18;;;28.30;53.90;;;;;;5036781;28;20052;-90
2021/07/10 05:00:39;;;;;;;17.63;7.63;;;28.10;53.90;;;;;;5014141;28;20094;-91
2021/07/10 05:03:05;;;;;;;10.88;7.15;;;28.00;54.30;;;;;;5026473;28;20495;-91
2021/07/10 05:05:32;;;;;;;14.30;7.22;;;27.90;54.10;;;;;;4971163;28;20050;-91
2021/07/10 05:07:59;;;;;;;13.35;6.47;;;27.70;54.70;;;;;;5002206;28;20157;-90
2021/07/10 05:10:25;;;;;;;8.13;6.28;;;27.50;55.30;;;;;;5010363;28;20364;-89
2021/07/10 05:12:51;;;;;;;10.90;5.77;;;27.50;55.70;;;;;;5030886;28;20037;-90
2021/07/10 05:15:17;;;;;;;11.82;6.65;;;27.50;55.60;;;;;;5041571;28;20025;-87
2021/07/10 05:17:43;;;;;;;7.80;6.03;;;27.50;55.60;;;;;;5036912;28;20076;-86
2021/07/10 05:20:13;;;;;;;16.83;6.82;;;27.40;55.80;;;;;;5036758;28;20030;-90
2021/07/10 05:22:40;;;;;;;10.75;6.70;;;28.00;55.40;;;;;;5022759;28;20028;-86
2021/07/10 05:25:06;;;;;;;10.35;6.35;;;29.30;53.30;;;;;;5035322;28;20093;-87
2021/07/10 05:27:32;;;;;;;9.10;5.95;;;30.60;50.60;;;;;;5035788;28;20037;-89
2021/07/10 05:29:58;;;;;;;12.65;6.20;;;31.80;48.30;;;;;;5036278;28;20025;-88
2021/07/10 05:32:24;;;;;;;10.85;6.50;;;32.80;46.50;;;;;;5035448;28;20029;-90
2021/07/10 05:34:50;;;;;;;10.80;6.50;;;33.60;44.90;;;;;;5036103;28;20028;-89
2021/07/10 05:37:16;;;;;;;17.67;6.87;;;34.30;43.50;;;;;;5036143;28;20033;-88
2021/07/10 05:39:42;;;;;;;7.73;5.60;;;35.10;42.30;;;;;;5039329;28;20040;-89
2021/07/10 05:42:10;;;;;;;10.30;5.25;;;35.30;41.50;;;;;;5037240;28;20035;-89
2021/07/10 05:44:36;;;;;;;8.38;5.80;;;36.00;40.60;;;;;;5036334;28;20040;-88
2021/07/10 05:47:02;;;;;;;15.00;6.22;;;36.60;39.90;;;;;;5035894;28;20033;-88
2021/07/10 05:49:30;;;;;;;11.07;5.15;;;37.30;38.70;;;;;;5036063;28;20091;-87
2021/07/10 05:51:56;;;;;;;10.95;4.82;;;37.90;38.20;;;;;;5036139;28;20045;-88
2021/07/10 05:54:22;;;;;;;5.97;5.40;;;38.40;37.30;;;;;;5036477;28;20022;-90
2021/07/10 05:56:48;;;;;;;16.45;6.30;;;38.50;36.60;;;;;;5036306;28;20056;-87
2021/07/10 05:59:14;;;;;;;12.48;6.85;;;38.80;37.20;;;;;;5036586;28;20028;-89
2021/07/10 06:01:39;;;;;;;13.30;5.80;;;38.70;36.70;;;;;;5036223;28;20032;-89
2021/07/10 06:04:05;;;;;;;10.02;5.43;;;38.50;36.90;;;;;;5037531;28;20434;-88
2021/07/10 06:06:31;;;;;;;13.50;5.65;;;39.00;36.50;;;;;;5038829;28;20041;-88
2021/07/10 06:08:57;;;;;;;9.50;5.38;;;39.70;35.90;;;;;;5035784;28;20057;-88
2021/07/10 06:11:23;;;;;;;8.60;4.80;;;40.40;34.90;;;;;;5036861;28;20089;-87
2021/07/10 06:13:48;;;;;;;13.63;5.47;;;40.90;34.50;;;;;;5035714;28;20041;-87
2021/07/10 06:16:15;;;;;;;16.42;5.95;;;41.80;33.50;;;;;;5034494;28;20053;-88
2021/07/10 06:18:41;;;;;;;8.20;5.05;;;42.60;32.70;;;;;;5034925;28;20018;-87
2021/07/10 06:21:07;;;;;;;11.20;5.45;;;43.20;31.90;;;;;;5035379;28;20463;-87
2021/07/10 06:23:33;;;;;;;9.18;5.15;;;44.00;31.40;;;;;;5039060;28;20056;-88
2021/07/10 06:25:59;;;;;;;9.93;5.65;;;43.60;31.10;;;;;;5046203;28;20078;-88
2021/07/10 06:28:25;;;;;;;7.80;5.53;;;43.80;31.10;;;;;;5040076;28;20056;-88
2021/07/10 06:30:50;;;;;;;8.70;5.22;;;44.60;31.50;;;;;;5039625;28;20014;-89
2021/07/10 06:33:16;;;;;;;;;;;45.30;30.00;;;;;;5042052;28;20024;-88
2021/07/10 06:35:42;;;;;;;13.00;5.10;;;45.80;30.80;;;;;;5040481;28;20005;-91
2021/07/10 06:38:08;;;;;;;12.10;5.38;;;45.70;29.40;;;;;;5044051;28;20018;-87
2021/07/10 06:40:34;;;;;;;9.40;5.07;;;45.60;29.50;;;;;;5039074;28;20391;-87
2021/07/10 06:43:00;;;;;;;8.02;5.22;;;46.10;29.10;;;;;;5040410;28;20021;-88
2021/07/10 06:45:26;;;;;;;6.90;5.10;;;46.70;29.00;;;;;;5040060;28;20545;-89
2021/07/10 06:47:52;;;;;;;9.52;5.35;;;47.10;28.50;;;;;;5042546;28;20356;-88
2021/07/10 06:50:20;;;;;;;8.93;4.50;;;47.40;28.20;;;;;;5041331;28;20037;-89
2021/07/10 06:52:47;;;;;;;7.13;4.55;;;47.10;28.20;;;;;;5042512;28;20025;-90
2021/07/10 06:55:15;;;;;;;12.43;4.72;;;47.60;28.00;;;;;;5019402;28;20120;-87
2021/07/10 06:57:41;;;;;;;9.65;5.35;;;47.80;28.00;;;;;;5035920;28;20018;-89
2021/07/10 07:00:12;;;;;;;8.25;5.05;;;47.70;27.60;;;;;;5026687;28;20052;-87
2021/07/10 07:02:38;;;;;;;9.00;4.95;;;47.90;27.60;;;;;;5032647;28;20022;-87
2021/07/10 07:05:04;;;;;;;10.35;4.72;;;47.80;27.60;;;;;;5031896;28;20033;-88
2021/07/10 07:07:31;;;;;;;7.95;4.78;;;48.00;27.70;;;;;;5051850;28;20021;-87
2021/07/10 07:09:57;;;;;;;7.10;4.75;;;48.30;27.50;;;;;;5035520;28;20026;-87
2021/07/10 07:12:23;;;;;;;9.98;4.80;;;48.10;27.20;;;;;;5024956;28;20517;-88
2021/07/10 07:14:49;;;;;;;7.88;4.65;;;47.80;27.40;;;;;;5058099;28;20080;-88
2021/07/10 07:17:15;;;;;;;8.88;4.40;;;46.80;27.60;;;;;;5040206;28;20022;-87
2021/07/10 07:19:41;;;;;;;7.80;4.43;;;46.90;27.70;;;;;;5044057;28;20109;-87
2021/07/10 07:22:07;;;;;;;13.43;4.95;;;47.30;27.80;;;;;;5020816;28;20025;-88
2021/07/10 07:24:33;;;;;;;7.32;4.28;;;47.80;27.70;;;;;;5043961;28;20013;-87
2021/07/10 07:27:01;;;;;;;9.25;5.00;;;48.60;27.10;;;;;;5056209;28;20009;-89
2021/07/10 07:29:28;;;;;;;11.57;4.80;;;48.80;27.00;;;;;;5059815;28;20033;-83
2021/07/10 07:31:54;;;;;;;8.35;4.75;;;48.40;27.10;;;;;;5054466;28;20042;-89
2021/07/10 07:34:20;;;;;;;6.80;4.50;;;48.90;27.20;;;;;;5034592;28;20017;-87
2021/07/10 07:36:46;;;;;;;9.40;4.55;;;49.40;26.60;;;;;;5044212;28;20022;-89
2021/07/10 07:39:12;;;;;;;7.43;4.93;;;49.40;26.50;;;;;;5037143;28;20038;-87
2021/07/10 07:41:39;;;;;;;10.95;5.65;;;49.20;26.50;;;;;;5044313;28;20104;-87
2021/07/10 07:44:05;;;;;;;11.48;5.22;;;49.50;26.50;;;;;;5046398;28;20029;-86
2021/07/10 07:46:32;;;;;;;8.43;5.75;;;49.70;26.40;;;;;;5033851;28;20045;-87
2021/07/10 07:48:58;;;;;;;6.63;5.07;;;49.20;26.30;;;;;;5029405;28;20429;-86
2021/07/10 07:51:24;;;;;;;9.68;4.47;;;49.00;26.60;;;;;;5037420;28;20068;-85
2021/07/10 07:53:50;;;;;;;12.15;4.97;;;49.50;26.60;;;;;;5030641;28;20096;-85
2021/07/10 07:56:16;;;;;;;10.52;5.78;;;50.00;26.50;;;;;;5019752;28;20029;-87
2021/07/10 07:58:44;;;;;;;8.57;5.75;;;49.20;25.90;;;;;;5041145;28;20025;-87
2021/07/10 08:01:12;;;;;;;9.52;5.75;;;46.80;26.90;;;;;;5048986;28;20529;-87
2021/07/10 08:03:38;;;;;;;10.05;6.05;;;42.90;28.00;;;;;;5034708;28;20022;-88
2021/07/10 08:06:04;;;;;;;7.78;6.10;;;41.90;29.70;;;;;;5035089;28;20494;-86
2021/07/10 08:08:31;;;;;;;9.52;7.00;;;40.10;31.40;;;;;;5036790;28;20022;-86
2021/07/10 08:10:56;;;;;;;10.00;6.18;;;39.20;33.90;;;;;;5036110;28;20479;-85
2021/07/10 08:13:22;;;;;;;7.47;5.53;;;40.10;33.20;;;;;;5035691;28;20048;-82
2021/07/10 08:15:48;;;;;;;6.40;5.70;;;42.10;31.90;;;;;;5030898;28;20026;-84
2021/07/10 08:18:14;;;;;;;;;;;43.40;29.40;;;;;;5030260;28;20028;-84
2021/07/10 08:20:40;;;;;;;7.75;6.00;;;43.40;29.40;;;;;;5035212;28;20381;-85
2021/07/10 08:23:07;;;;;;;8.20;5.57;;;44.10;28.60;;;;;;5036365;28;20021;-88
2021/07/10 08:25:33;;;;;;;6.45;5.85;;;44.90;27.90;;;;;;5036693;28;20033;-87
2021/07/10 08:27:59;;;;;;;13.63;5.88;;;46.30;27.70;;;;;;5036571;28;20032;-85
2021/07/10 08:30:26;;;;;;;7.25;5.35;;;47.40;26.70;;;;;;5034996;28;20553;-86
2021/07/10 08:32:52;;;;;;;9.30;5.53;;;48.30;26.40;;;;;;5033994;28;20471;-85
2021/07/10 08:35:20;;;;;;;8.27;5.53;;;48.10;26.40;;;;;;5036302;28;20033;-87
2021/07/10 08:37:46;;;;;;;6.38;5.35;;;48.00;26.30;;;;;;5036581;28;20096;-85
2021/07/10 08:40:14;;;;;;;10.77;5.88;;;46.70;26.50;;;;;;5038549;28;20098;-87
2021/07/10 08:42:40;;;;;;;8.93;6.68;;;46.60;27.20;;;;;;5020810;28;20041;-88
2021/07/10 08:45:09;;;;;;;6.10;5.60;;;47.30;27.10;;;;;;5035267;28;20609;-86
2021/07/10 08:47:37;;;;;;;8.75;6.00;;;48.30;26.90;;;;;;5035916;28;20048;-86
2021/07/10 08:50:09;;;;;;;9.50;6.22;;;48.00;26.60;;;;;;5035502;28;20359;-86
2021/07/10 08:52:36;;;;;;;9.32;6.55;;;47.30;26.80;;;;;;5035746;28;20421;-85
2021/07/10 08:55:07;;;;;;;8.68;6.10;;;46.90;27.20;;;;;;5017591;28;20018;-88
2021/07/10 08:57:36;;;;;;;8.13;5.90;;;46.90;27.10;;;;;;5035922;28;20021;-87
2021/07/10 09:00:16;;;;;;;12.57;6.25;;;46.90;27.00;;;;;;5019071;28;20022;-89
2021/07/10 09:02:45;;;;;;;10.30;5.97;;;47.30;26.90;;;;;;5036266;28;20018;-87
2021/07/10 09:05:12;;;;;;;9.05;6.43;;;48.30;26.70;;;;;;5017213;28;20112;-88
2021/07/10 09:08:23;;;;;;;7.03;6.10;;;49.50;26.20;;;;;;5017682;28;20026;-88
2021/07/10 09:11:09;;;;;;;7.70;5.70;;;49.50;25.50;;;;;;5023831;28;20021;-87
2021/07/10 09:13:53;;;;;;;7.85;5.60;;;48.50;25.80;;;;;;5033656;28;20482;-87
2021/07/10 09:16:27;;;;;;;6.53;5.22;;;48.10;25.90;;;;;;5023705;28;20475;-87
2021/07/10 09:19:13;;;;;;;7.95;6.25;;;47.90;26.30;;;;;;5039230;28;20148;-88
2021/07/10 09:21:51;;;;;;;6.78;6.00;;;46.60;26.40;;;;;;5037399;28;20450;-86
2021/07/10 09:24:24;;;;;;;6.47;5.82;;;45.20;27.30;;;;;;5036669;28;20025;-89
2021/07/10 09:26:53;;;;;;;8.80;5.85;;;45.00;27.50;;;;;;5022634;28;20033;-87
2021/07/10 09:29:44;;;;;;;8.43;5.75;;;44.90;26.40;;;;;;5025001;28;20336;-85
2021/07/10 09:32:19;;;;;;;11.77;6.03;;;45.60;26.50;;;;;;5048946;28;20050;-88
2021/07/10 09:34:49;;;;;;;7.70;6.60;;;45.80;26.30;;;;;;5044455;28;20108;-89
2021/07/10 09:37:24;;;;;;;6.00;5.22;;;45.50;26.60;;;;;;5023981;28;20573;-86
2021/07/10 09:40:02;;;;;;;6.43;5.82;;;45.80;26.30;;;;;;5039084;28;20029;-87
2021/07/10 09:42:45;;;;;;;8.82;5.25;;;46.60;26.40;;;;;;5035216;28;20458;-83
2021/07/10 09:45:23;;;;;;;6.40;5.53;;;46.70;26.00;;;;;;5034312;28;20045;-85
2021/07/10 09:47:51;;;;;;;10.13;6.88;;;45.30;26.20;;;;;;5033017;28;20029;-87
2021/07/10 09:50:24;;;;;;;8.57;6.47;;;43.30;27.40;;;;;;5030229;28;20609;-83
2021/07/10 09:52:50;;;;;;;6.97;6.38;;;42.20;28.10;;;;;;5032915;28;20030;-84
2021/07/10 09:55:18;;;;;;;7.57;6.72;;;42.50;28.40;;;;;;5027183;28;20025;-84
2021/07/10 09:57:47;;;;;;;7.72;6.78;;;43.30;28.00;;;;;;5038997;28;20017;-80
2021/07/10 10:00:20;;;;;;;6.70;6.05;;;43.00;27.70;;;;;;5038132;28;20013;-82
2021/07/10 10:02:54;;;;;;;8.10;7.00;;;41.20;28.40;;;;;;5042721;28;20021;-81
2021/07/10 10:05:32;;;;;;;10.05;7.90;;;39.30;29.90;;;;;;5019347;28;20025;-81
2021/07/10 10:08:04;;;;;;;8.05;6.90;;;39.00;31.00;;;;;;5030295;28;20058;-82
2021/07/10 10:10:36;;;;;;;9.48;5.70;;;40.70;30.10;;;;;;5036747;28;20021;-83
2021/07/10 10:13:05;;;;;;;10.38;6.80;;;41.70;29.20;;;;;;5018845;28;20041;-83
2021/07/10 10:15:54;;;;;;;8.35;7.55;;;41.40;29.40;;;;;;5035354;28;20088;-82
2021/07/10 10:18:24;;;;;;;10.80;7.80;;;40.60;29.70;;;;;;5031251;28;20058;-85
2021/07/10 10:21:10;;;;;;;10.30;8.65;;;39.70;30.60;;;;;;5036874;28;20029;-83
2021/07/10 10:23:37;;;;;;;8.32;7.43;;;39.00;31.10;;;;;;5018937;28;20033;-84
2021/07/10 10:26:04;;;;;;;7.47;6.78;;;38.50;32.00;;;;;;5030072;28;20170;-80
2021/07/10 10:28:33;;;;;;;9.75;7.55;;;38.40;32.50;;;;;;5036417;28;20029;-80
2021/07/10 10:30:59;;;;;;;11.45;7.97;;;38.40;32.80;;;;;;5036123;28;20022;-79
2021/07/10 10:33:27;;;;;;;9.45;7.32;;;37.70;33.10;;;;;;5036007;28;20022;-80
2021/07/10 10:35:54;;;;;;;8.98;8.18;;;37.10;33.90;;;;;;5036188;28;20101;-81
2021/07/10 10:38:21;;;;;;;9.13;8.25;;;36.70;35.20;;;;;;5018010;28;20490;-80
2021/07/10 10:40:51;;;;;;;9.77;8.77;;;36.30;35.30;;;;;;5035843;28;20241;-80
2021/07/10 10:43:19;;;;;;;9.15;7.80;;;35.90;35.40;;;;;;5035786;28;20029;-81
2021/07/10 10:45:46;;;;;;;9.00;8.18;;;35.80;36.00;;;;;;5027781;28;20422;-80
2021/07/10 10:48:16;;;;;;;8.05;7.25;;;35.80;36.10;;;;;;5035102;28;20021;-80
2021/07/10 10:50:42;;;;;;;7.70;7.00;;;35.70;35.90;;;;;;5035730;28;20021;-80
2021/07/10 10:53:19;;;;;;;10.83;7.83;;;35.50;36.40;;;;;;5035408;28;20037;-80
2021/07/10 10:55:46;;;;;;;9.57;8.63;;;35.40;36.60;;;;;;5034818;28;20063;-79
2021/07/10 10:58:22;;;;;;;10.18;8.35;;;35.20;36.70;;;;;;5034725;28;20359;-79
2021/07/10 11:00:56;;;;;;;9.73;7.55;;;35.10;36.90;;;;;;5034957;28;20089;-81
2021/07/10 11:03:22;;;;;;;9.95;8.60;;;35.00;36.50;;;;;;5017427;28;20021;-81
2021/07/10 11:05:58;;;;;;;9.60;8.60;;;34.90;37.20;;;;;;5035411;28;20443;-79
2021/07/10 11:08:29;;;;;;;9.02;7.20;;;35.00;37.50;;;;;;5017192;28;20026;-80
2021/07/10 11:10:57;;;;;;;8.55;7.78;;;35.10;37.30;;;;;;5034861;28;20021;-80
2021/07/10 11:13:31;;;;;;;8.40;7.70;;;35.10;36.90;;;;;;5034459;28;20049;-85
2021/07/10 11:16:06;;;;;;;8.20;7.50;;;35.20;37.70;;;;;;5015500;28;20175;-85
2021/07/10 11:18:57;;;;;;;9.20;8.27;;;35.20;38.00;;;;;;5035784;28;20447;-82
2021/07/10 11:21:34;;;;;;;13.32;8.20;;;35.10;38.10;;;;;;5035250;28;20029;-84
2021/07/10 11:26:44;;;;;;;13.35;8.80;;;34.50;39.00;;;;;;5034989;28;20037;-84
2021/07/10 11:29:40;;;;;;;13.07;8.50;;;34.30;39.40;;;;;;5027767;28;20029;-81
2021/07/10 11:32:12;;;;;;;10.07;8.50;;;33.90;39.60;;;;;;5004417;28;20034;-82
2021/07/10 11:34:49;;;;;;;9.77;8.77;;;33.70;40.30;;;;;;5020631;28;20476;-83
2021/07/10 11:37:15;;;;;;;10.20;8.60;;;33.60;40.30;;;;;;5039967;28;20119;-83
2021/07/10 11:40:05;;;;;;;9.90;8.30;;;33.50;40.50;;;;;;5036092;28;20022;-85
2021/07/10 11:42:34;;;;;;;10.40;8.75;;;33.50;40.40;;;;;;5048903;28;20022;-85
2021/07/10 11:45:05;;;;;;;10.73;8.70;;;33.40;40.90;;;;;;5034840;28;20018;-86
2021/07/10 11:47:32;;;;;;;9.80;8.88;;;33.60;40.70;;;;;;5038704;28;20025;-83
2021/07/10 11:50:00;;;;;;;9.77;8.85;;;33.50;40.10;;;;;;5037919;28;20025;-85
2021/07/10 11:52:27;;;;;;;10.27;9.18;;;33.50;40.60;;;;;;5024304;28;20046;-80
2021/07/10 11:54:56;;;;;;;8.73;7.93;;;33.60;40.80;;;;;;5032198;28;20040;-79
2021/07/10 11:57:25;;;;;;;9.85;8.85;;;33.80;39.80;;;;;;5035557;28;20013;-79
2021/07/10 11:59:50;;;;;;;9.68;8.45;;;33.70;39.50;;;;;;5034395;28;20378;-78
2021/07/10 12:02:32;;;;;;;9.83;8.93;;;33.60;39.40;;;;;;5038673;28;20069;-81
2021/07/10 12:05:05;;;;;;;15.65;9.05;;;33.40;39.60;;;;;;5044088;28;20045;-80
2021/07/10 12:07:35;;;;;;;9.60;8.57;;;33.40;40.30;;;;;;5039255;28;20029;-82
2021/07/10 12:10:01;;;;;;;13.07;9.13;;;33.60;40.60;;;;;;5049541;28;20033;-80
2021/07/10 12:12:27;;;;;;;10.48;9.38;;;33.70;40.30;;;;;;5048880;28;20215;-79
2021/07/10 12:14:55;;;;;;;16.20;10.00;;;33.90;40.40;;;;;;5038089;28;20129;-82
2021/07/10 12:17:22;;;;;;;12.27;9.50;;;34.10;40.10;;;;;;5017837;28;20025;-83
2021/07/10 12:19:49;;;;;;;10.40;9.15;;;34.20;39.80;;;;;;5037147;28;20029;-81
2021/07/10 12:22:16;;;;;;;9.85;9.05;;;34.30;39.80;;;;;;5035028;28;20021;-81
2021/07/10 12:24:42;;;;;;;9.88;8.88;;;34.10;40.10;;;;;;5027109;28;20032;-81
2021/07/10 12:27:13;;;;;;;10.77;8.52;;;33.90;39.70;;;;;;5051914;28;20180;-83
2021/07/10 12:29:50;;;;;;;12.18;9.75;;;33.80;39.50;;;;;;5017126;28;20034;-81
2021/07/10 12:32:16;;;;;;;15.57;9.63;;;33.70;39.50;;;;;;5041555;28;20024;-80
2021/07/10 12:34:53;;;;;;;10.60;9.60;;;33.70;39.90;;;;;;5036773;28;20470;-80
2021/07/10 12:37:25;;;;;;;;;;;33.70;39.80;;;;;;5018813;28;20121;-82
2021/07/10 12:39:51;;;;;;;10.48;8.82;;;33.70;39.50;;;;;;5042495;28;19916;-79
2021/07/10 12:42:19;;;;;;;10.98;9.30;;;33.60;39.70;;;;;;5057227;28;20020;-80
2021/07/10 12:44:46;;;;;;;10.73;9.70;;;33.50;39.30;;;;;;5046352;28;20029;-81
2021/07/10 12:47:19;;;;;;;10.00;9.05;;;33.50;39.30;;;;;;5034417;28;20033;-83
2021/07/10 12:49:56;;;;;;;11.15;9.13;;;33.50;39.60;;;;;;5034941;28;20026;-81
2021/07/10 12:52:49;;;;;;;10.50;9.43;;;33.50;40.10;;;;;;5033810;28;20547;-82